sensor_id;sensor_type;location;lat;lon;timestamp;P1;durP1;ratioP1;P2;durP2;ratioP2
23614;SDS011;11985;49.404;7.734;2023-04-25T00:00:56;19.77;;;10.68;;
23614;SDS011;11985;49.404;7.734;2023-04-25T00:05:59;19.55;;;10.80;;
23614;SDS011;11985;49.404;7.734;2023-04-25T00:11:02;16.85;;;10.15;;
23614;SDS011;11985;49.404;7.734;2023-04-25T00:16:04;18.85;;;11.07;;
23614;SDS011;11985;49.404;7.734;2023-04-25T00:21:07;20.08;;;11.93;;
23614;SDS011;11985;49.404;7.734;2023-04-25T00:26:10;25.10;;;12.05;;
23614;SDS011;11985;49.404;7.734;2023-04-25T00:31:12;24.05;;;12.63;;
23614;SDS011;11985;49.404;7.734;2023-04-25T00:36:15;20.60;;;12.57;;
23614;SDS011;11985;49.404;7.734;2023-04-25T00:41:18;21.17;;;12.38;;
23614;SDS011;11985;49.404;7.734;2023-04-25T00:46:20;20.42;;;12.18;;
23614;SDS011;11985;49.404;7.734;2023-04-25T00:51:23;29.85;;;13.23;;
23614;SDS011;11985;49.404;7.734;2023-04-25T00:56:26;24.63;;;12.70;;
23614;SDS011;11985;49.404;7.734;2023-04-25T01:01:28;21.48;;;13.43;;
23614;SDS011;11985;49.404;7.734;2023-04-25T01:06:32;22.90;;;13.23;;
23614;SDS011;11985;49.404;7.734;2023-04-25T01:11:34;25.33;;;12.63;;
23614;SDS011;11985;49.404;7.734;2023-04-25T01:16:35;20.27;;;13.00;;
23614;SDS011;11985;49.404;7.734;2023-04-25T01:21:38;19.80;;;12.80;;
23614;SDS011;11985;49.404;7.734;2023-04-25T01:26:40;20.73;;;12.65;;
23614;SDS011;11985;49.404;7.734;2023-04-25T01:31:49;20.50;;;11.10;;
23614;SDS011;11985;49.404;7.734;2023-04-25T01:36:53;18.33;;;11.60;;
23614;SDS011;11985;49.404;7.734;2023-04-25T01:41:55;21.52;;;10.70;;
23614;SDS011;11985;49.404;7.734;2023-04-25T01:46:57;16.73;;;9.75;;
23614;SDS011;11985;49.404;7.734;2023-04-25T01:52:00;15.45;;;9.93;;
23614;SDS011;11985;49.404;7.734;2023-04-25T01:57:02;16.95;;;10.88;;
23614;SDS011;11985;49.404;7.734;2023-04-25T02:02:04;18.23;;;10.15;;
23614;SDS011;11985;49.404;7.734;2023-04-25T02:07:07;14.98;;;10.10;;
23614;SDS011;11985;49.404;7.734;2023-04-25T02:12:09;18.52;;;10.57;;
23614;SDS011;11985;49.404;7.734;2023-04-25T02:17:11;17.42;;;10.23;;
23614;SDS011;11985;49.404;7.734;2023-04-25T02:22:14;13.73;;;8.63;;
23614;SDS011;11985;49.404;7.734;2023-04-25T02:27:16;15.13;;;9.10;;
23614;SDS011;11985;49.404;7.734;2023-04-25T02:32:18;16.10;;;9.57;;
23614;SDS011;11985;49.404;7.734;2023-04-25T02:37:21;14.77;;;8.50;;
23614;SDS011;11985;49.404;7.734;2023-04-25T02:42:22;17.90;;;9.63;;
23614;SDS011;11985;49.404;7.734;2023-04-25T02:47:24;16.05;;;9.55;;
23614;SDS011;11985;49.404;7.734;2023-04-25T02:52:27;16.98;;;9.73;;
23614;SDS011;11985;49.404;7.734;2023-04-25T02:57:28;16.13;;;9.18;;
23614;SDS011;11985;49.404;7.734;2023-04-25T03:02:30;16.15;;;9.80;;
23614;SDS011;11985;49.404;7.734;2023-04-25T03:07:33;23.52;;;11.13;;
23614;SDS011;11985;49.404;7.734;2023-04-25T03:12:34;21.10;;;12.27;;
23614;SDS011;11985;49.404;7.734;2023-04-25T03:17:36;25.17;;;13.63;;
23614;SDS011;11985;49.404;7.734;2023-04-25T03:22:39;25.33;;;14.10;;
23614;SDS011;11985;49.404;7.734;2023-04-25T03:27:41;21.90;;;12.73;;
23614;SDS011;11985;49.404;7.734;2023-04-25T03:32:42;26.27;;;15.13;;
23614;SDS011;11985;49.404;7.734;2023-04-25T03:37:45;29.15;;;15.77;;
23614;SDS011;11985;49.404;7.734;2023-04-25T03:42:47;26.27;;;16.52;;
23614;SDS011;11985;49.404;7.734;2023-04-25T03:47:49;26.75;;;15.98;;
23614;SDS011;11985;49.404;7.734;2023-04-25T03:52:52;31.17;;;16.52;;
23614;SDS011;11985;49.404;7.734;2023-04-25T03:57:53;27.33;;;14.50;;
23614;SDS011;11985;49.404;7.734;2023-04-25T04:02:55;26.08;;;15.57;;
23614;SDS011;11985;49.404;7.734;2023-04-25T04:07:58;29.45;;;14.50;;
23614;SDS011;11985;49.404;7.734;2023-04-25T04:13:00;22.50;;;12.88;;
23614;SDS011;11985;49.404;7.734;2023-04-25T04:18:01;17.52;;;12.13;;
23614;SDS011;11985;49.404;7.734;2023-04-25T04:23:04;21.02;;;12.60;;
23614;SDS011;11985;49.404;7.734;2023-04-25T04:28:06;19.27;;;12.65;;
23614;SDS011;11985;49.404;7.734;2023-04-25T04:33:08;19.40;;;11.77;;
23614;SDS011;11985;49.404;7.734;2023-04-25T04:38:11;20.23;;;12.13;;
23614;SDS011;11985;49.404;7.734;2023-04-25T04:43:14;20.77;;;12.82;;
23614;SDS011;11985;49.404;7.734;2023-04-25T04:48:17;19.63;;;12.52;;
23614;SDS011;11985;49.404;7.734;2023-04-25T04:53:20;18.15;;;11.80;;
23614;SDS011;11985;49.404;7.734;2023-04-25T04:58:21;20.92;;;13.40;;
23614;SDS011;11985;49.404;7.734;2023-04-25T05:03:23;23.73;;;13.98;;
23614;SDS011;11985;49.404;7.734;2023-04-25T05:08:26;23.92;;;14.18;;
23614;SDS011;11985;49.404;7.734;2023-04-25T05:13:28;24.95;;;15.00;;
23614;SDS011;11985;49.404;7.734;2023-04-25T05:18:30;25.25;;;15.70;;
23614;SDS011;11985;49.404;7.734;2023-04-25T05:23:33;28.83;;;15.00;;
23614;SDS011;11985;49.404;7.734;2023-04-25T05:28:35;23.92;;;15.35;;
23614;SDS011;11985;49.404;7.734;2023-04-25T05:33:37;25.38;;;14.82;;
23614;SDS011;11985;49.404;7.734;2023-04-25T05:38:40;26.08;;;16.00;;
23614;SDS011;11985;49.404;7.734;2023-04-25T05:43:43;23.25;;;15.68;;
23614;SDS011;11985;49.404;7.734;2023-04-25T05:48:47;26.35;;;15.85;;
23614;SDS011;11985;49.404;7.734;2023-04-25T05:53:50;21.48;;;13.23;;
23614;SDS011;11985;49.404;7.734;2023-04-25T05:58:51;23.77;;;13.43;;
23614;SDS011;11985;49.404;7.734;2023-04-25T06:03:53;23.55;;;14.15;;
23614;SDS011;11985;49.404;7.734;2023-04-25T06:08:56;29.83;;;14.40;;
23614;SDS011;11985;49.404;7.734;2023-04-25T06:13:58;21.90;;;13.18;;
23614;SDS011;11985;49.404;7.734;2023-04-25T06:18:59;19.45;;;12.80;;
23614;SDS011;11985;49.404;7.734;2023-04-25T06:24:02;22.30;;;14.23;;
23614;SDS011;11985;49.404;7.734;2023-04-25T06:29:05;22.88;;;13.68;;
23614;SDS011;11985;49.404;7.734;2023-04-25T06:34:06;23.80;;;13.60;;
23614;SDS011;11985;49.404;7.734;2023-04-25T06:39:09;21.75;;;13.82;;
23614;SDS011;11985;49.404;7.734;2023-04-25T06:44:11;23.75;;;14.32;;
23614;SDS011;11985;49.404;7.734;2023-04-25T06:49:13;23.25;;;14.07;;
23614;SDS011;11985;49.404;7.734;2023-04-25T06:54:17;37.83;;;21.65;;
23614;SDS011;11985;49.404;7.734;2023-04-25T06:59:19;19.77;;;12.73;;
23614;SDS011;11985;49.404;7.734;2023-04-25T07:04:20;18.33;;;11.82;;
23614;SDS011;11985;49.404;7.734;2023-04-25T07:09:23;24.77;;;12.82;;
23614;SDS011;11985;49.404;7.734;2023-04-25T07:14:25;21.70;;;13.02;;
23614;SDS011;11985;49.404;7.734;2023-04-25T07:19:27;23.80;;;14.07;;
23614;SDS011;11985;49.404;7.734;2023-04-25T07:24:31;21.55;;;13.35;;
23614;SDS011;11985;49.404;7.734;2023-04-25T07:29:32;18.50;;;12.10;;
23614;SDS011;11985;49.404;7.734;2023-04-25T07:34:37;20.92;;;12.18;;
23614;SDS011;11985;49.404;7.734;2023-04-25T07:39:40;19.95;;;12.60;;
23614;SDS011;11985;49.404;7.734;2023-04-25T07:44:41;28.50;;;13.23;;
23614;SDS011;11985;49.404;7.734;2023-04-25T07:49:43;24.92;;;15.70;;
23614;SDS011;11985;49.404;7.734;2023-04-25T07:54:46;24.98;;;15.02;;
23614;SDS011;11985;49.404;7.734;2023-04-25T07:59:48;24.33;;;14.63;;
23614;SDS011;11985;49.404;7.734;2023-04-25T08:04:50;22.33;;;15.35;;
23614;SDS011;11985;49.404;7.734;2023-04-25T08:09:53;22.75;;;13.65;;
23614;SDS011;11985;49.404;7.734;2023-04-25T08:14:54;21.25;;;14.02;;
23614;SDS011;11985;49.404;7.734;2023-04-25T08:19:56;22.35;;;14.50;;
23614;SDS011;11985;49.404;7.734;2023-04-25T08:24:59;20.90;;;13.43;;
23614;SDS011;11985;49.404;7.734;2023-04-25T08:30:00;22.38;;;11.15;;
23614;SDS011;11985;49.404;7.734;2023-04-25T08:35:03;25.10;;;11.52;;
23614;SDS011;11985;49.404;7.734;2023-04-25T08:40:07;22.70;;;11.30;;
23614;SDS011;11985;49.404;7.734;2023-04-25T08:45:15;18.65;;;10.25;;
23614;SDS011;11985;49.404;7.734;2023-04-25T08:50:17;18.40;;;11.23;;
23614;SDS011;11985;49.404;7.734;2023-04-25T08:55:22;21.50;;;10.77;;
23614;SDS011;11985;49.404;7.734;2023-04-25T09:00:26;25.58;;;11.35;;
23614;SDS011;11985;49.404;7.734;2023-04-25T09:05:28;24.70;;;12.73;;
23614;SDS011;11985;49.404;7.734;2023-04-25T09:10:31;21.10;;;11.75;;
23614;SDS011;11985;49.404;7.734;2023-04-25T09:15:32;21.92;;;9.75;;
23614;SDS011;11985;49.404;7.734;2023-04-25T09:20:34;20.20;;;9.90;;
23614;SDS011;11985;49.404;7.734;2023-04-25T09:25:44;21.42;;;10.90;;
23614;SDS011;11985;49.404;7.734;2023-04-25T09:30:48;17.35;;;10.43;;
23614;SDS011;11985;49.404;7.734;2023-04-25T09:35:50;17.73;;;10.55;;
23614;SDS011;11985;49.404;7.734;2023-04-25T09:40:56;19.23;;;10.63;;
23614;SDS011;11985;49.404;7.734;2023-04-25T09:45:58;23.27;;;10.85;;
23614;SDS011;11985;49.404;7.734;2023-04-25T09:51:04;22.15;;;8.73;;
23614;SDS011;11985;49.404;7.734;2023-04-25T09:56:09;28.15;;;9.02;;
23614;SDS011;11985;49.404;7.734;2023-04-25T10:01:11;16.05;;;7.35;;
23614;SDS011;11985;49.404;7.734;2023-04-25T10:06:14;16.52;;;7.50;;
23614;SDS011;11985;49.404;7.734;2023-04-25T10:11:22;22.70;;;7.65;;
23614;SDS011;11985;49.404;7.734;2023-04-25T10:16:27;19.55;;;8.77;;
23614;SDS011;11985;49.404;7.734;2023-04-25T10:21:30;17.23;;;7.40;;
23614;SDS011;11985;49.404;7.734;2023-04-25T10:26:34;16.52;;;7.65;;
23614;SDS011;11985;49.404;7.734;2023-04-25T10:31:44;15.77;;;8.00;;
23614;SDS011;11985;49.404;7.734;2023-04-25T10:36:49;20.25;;;8.27;;
23614;SDS011;11985;49.404;7.734;2023-04-25T10:41:55;16.05;;;7.50;;
23614;SDS011;11985;49.404;7.734;2023-04-25T10:46:58;20.23;;;8.10;;
23614;SDS011;11985;49.404;7.734;2023-04-25T10:52:10;15.75;;;9.85;;
23614;SDS011;11985;49.404;7.734;2023-04-25T10:57:28;15.25;;;6.65;;
23614;SDS011;11985;49.404;7.734;2023-04-25T11:02:37;16.63;;;6.47;;
23614;SDS011;11985;49.404;7.734;2023-04-25T11:07:44;13.70;;;6.60;;
23614;SDS011;11985;49.404;7.734;2023-04-25T11:12:52;14.60;;;6.28;;
23614;SDS011;11985;49.404;7.734;2023-04-25T11:17:54;9.35;;;5.35;;
23614;SDS011;11985;49.404;7.734;2023-04-25T11:22:57;10.30;;;5.15;;
23614;SDS011;11985;49.404;7.734;2023-04-25T11:28:01;6.63;;;4.38;;
23614;SDS011;11985;49.404;7.734;2023-04-25T11:33:03;9.52;;;4.13;;
23614;SDS011;11985;49.404;7.734;2023-04-25T11:38:04;7.00;;;3.95;;
23614;SDS011;11985;49.404;7.734;2023-04-25T11:43:08;7.10;;;3.65;;
23614;SDS011;11985;49.404;7.734;2023-04-25T11:48:10;4.03;;;3.17;;
23614;SDS011;11985;49.404;7.734;2023-04-25T11:53:12;4.75;;;2.80;;
23614;SDS011;11985;49.404;7.734;2023-04-25T11:58:15;11.20;;;3.10;;
23614;SDS011;11985;49.404;7.734;2023-04-25T12:03:17;10.10;;;3.25;;
23614;SDS011;11985;49.404;7.734;2023-04-25T12:08:19;7.63;;;3.55;;
23614;SDS011;11985;49.404;7.734;2023-04-25T12:13:22;5.88;;;3.50;;
23614;SDS011;11985;49.404;7.734;2023-04-25T12:18:24;5.93;;;3.23;;
23614;SDS011;11985;49.404;7.734;2023-04-25T12:23:27;7.97;;;3.33;;
23614;SDS011;11985;49.404;7.734;2023-04-25T12:28:31;6.35;;;3.63;;
23614;SDS011;11985;49.404;7.734;2023-04-25T12:33:34;7.10;;;3.80;;
23614;SDS011;11985;49.404;7.734;2023-04-25T12:38:37;7.50;;;3.90;;
23614;SDS011;11985;49.404;7.734;2023-04-25T12:43:41;7.15;;;3.30;;
23614;SDS011;11985;49.404;7.734;2023-04-25T12:48:43;5.50;;;3.20;;
23614;SDS011;11985;49.404;7.734;2023-04-25T12:53:44;6.63;;;3.47;;
23614;SDS011;11985;49.404;7.734;2023-04-25T12:58:47;5.13;;;3.42;;
23614;SDS011;11985;49.404;7.734;2023-04-25T13:03:49;6.30;;;3.30;;
23614;SDS011;11985;49.404;7.734;2023-04-25T13:08:50;6.32;;;2.90;;
23614;SDS011;11985;49.404;7.734;2023-04-25T13:13:53;5.47;;;2.85;;
23614;SDS011;11985;49.404;7.734;2023-04-25T13:18:55;5.07;;;2.72;;
23614;SDS011;11985;49.404;7.734;2023-04-25T13:23:57;6.93;;;2.95;;
23614;SDS011;11985;49.404;7.734;2023-04-25T13:29:00;8.15;;;3.28;;
23614;SDS011;11985;49.404;7.734;2023-04-25T13:39:04;5.95;;;2.40;;
23614;SDS011;11985;49.404;7.734;2023-04-25T13:44:07;7.47;;;2.47;;
23614;SDS011;11985;49.404;7.734;2023-04-25T13:49:09;7.75;;;2.58;;
23614;SDS011;11985;49.404;7.734;2023-04-25T13:54:11;6.43;;;2.90;;
23614;SDS011;11985;49.404;7.734;2023-04-25T13:59:14;11.65;;;3.30;;
23614;SDS011;11985;49.404;7.734;2023-04-25T14:04:16;9.70;;;3.22;;
23614;SDS011;11985;49.404;7.734;2023-04-25T14:09:18;9.57;;;3.53;;
23614;SDS011;11985;49.404;7.734;2023-04-25T14:14:26;11.90;;;3.70;;
23614;SDS011;11985;49.404;7.734;2023-04-25T14:19:28;10.68;;;3.13;;
23614;SDS011;11985;49.404;7.734;2023-04-25T14:24:30;6.25;;;3.47;;
23614;SDS011;11985;49.404;7.734;2023-04-25T14:29:33;10.27;;;2.95;;
23614;SDS011;11985;49.404;7.734;2023-04-25T14:34:34;8.25;;;3.28;;
23614;SDS011;11985;49.404;7.734;2023-04-25T14:39:36;7.20;;;3.08;;
23614;SDS011;11985;49.404;7.734;2023-04-25T14:44:39;11.30;;;3.15;;
23614;SDS011;11985;49.404;7.734;2023-04-25T14:49:41;7.68;;;3.50;;
23614;SDS011;11985;49.404;7.734;2023-04-25T14:54:42;8.55;;;3.58;;
23614;SDS011;11985;49.404;7.734;2023-04-25T14:59:45;7.45;;;3.13;;
23614;SDS011;11985;49.404;7.734;2023-04-25T15:04:47;10.90;;;3.50;;
23614;SDS011;11985;49.404;7.734;2023-04-25T15:09:48;8.75;;;3.30;;
23614;SDS011;11985;49.404;7.734;2023-04-25T15:14:51;9.50;;;3.30;;
23614;SDS011;11985;49.404;7.734;2023-04-25T15:19:53;8.45;;;3.00;;
23614;SDS011;11985;49.404;7.734;2023-04-25T15:24:55;7.72;;;3.28;;
23614;SDS011;11985;49.404;7.734;2023-04-25T15:29:58;8.57;;;2.58;;
23614;SDS011;11985;49.404;7.734;2023-04-25T15:35:03;10.35;;;3.10;;
23614;SDS011;11985;49.404;7.734;2023-04-25T15:40:07;6.18;;;2.30;;
23614;SDS011;11985;49.404;7.734;2023-04-25T15:45:12;8.00;;;3.03;;
23614;SDS011;11985;49.404;7.734;2023-04-25T15:50:16;6.85;;;2.65;;
23614;SDS011;11985;49.404;7.734;2023-04-25T15:55:18;7.35;;;2.50;;
23614;SDS011;11985;49.404;7.734;2023-04-25T16:00:23;11.05;;;3.30;;
23614;SDS011;11985;49.404;7.734;2023-04-25T16:05:25;10.18;;;2.83;;
23614;SDS011;11985;49.404;7.734;2023-04-25T16:10:27;32.75;;;10.60;;
23614;SDS011;11985;49.404;7.734;2023-04-25T16:15:30;13.23;;;5.03;;
23614;SDS011;11985;49.404;7.734;2023-04-25T16:20:32;12.57;;;5.32;;
23614;SDS011;11985;49.404;7.734;2023-04-25T16:25:33;12.63;;;4.32;;
23614;SDS011;11985;49.404;7.734;2023-04-25T16:30:36;12.02;;;4.20;;
23614;SDS011;11985;49.404;7.734;2023-04-25T16:35:38;11.50;;;4.07;;
23614;SDS011;11985;49.404;7.734;2023-04-25T16:40:39;5.72;;;2.67;;
23614;SDS011;11985;49.404;7.734;2023-04-25T16:45:42;7.85;;;2.95;;
23614;SDS011;11985;49.404;7.734;2023-04-25T16:50:44;9.10;;;3.38;;
23614;SDS011;11985;49.404;7.734;2023-04-25T16:55:46;12.27;;;3.10;;
23614;SDS011;11985;49.404;7.734;2023-04-25T17:00:49;4.80;;;2.05;;
23614;SDS011;11985;49.404;7.734;2023-04-25T17:05:52;13.15;;;3.88;;
23614;SDS011;11985;49.404;7.734;2023-04-25T17:15:58;4.68;;;2.88;;
23614;SDS011;11985;49.404;7.734;2023-04-25T17:21:00;8.73;;;4.20;;
23614;SDS011;11985;49.404;7.734;2023-04-25T17:26:02;17.38;;;4.88;;
23614;SDS011;11985;49.404;7.734;2023-04-25T17:31:05;9.30;;;3.72;;
23614;SDS011;11985;49.404;7.734;2023-04-25T17:36:07;15.70;;;4.97;;
23614;SDS011;11985;49.404;7.734;2023-04-25T17:41:09;9.95;;;3.40;;
23614;SDS011;11985;49.404;7.734;2023-04-25T17:46:13;9.98;;;3.50;;
23614;SDS011;11985;49.404;7.734;2023-04-25T17:51:15;9.80;;;4.53;;
23614;SDS011;11985;49.404;7.734;2023-04-25T17:56:16;5.93;;;2.72;;
23614;SDS011;11985;49.404;7.734;2023-04-25T18:01:20;8.93;;;3.47;;
23614;SDS011;11985;49.404;7.734;2023-04-25T18:06:22;10.20;;;3.00;;
23614;SDS011;11985;49.404;7.734;2023-04-25T18:11:24;12.13;;;3.03;;
23614;SDS011;11985;49.404;7.734;2023-04-25T18:16:27;12.85;;;3.28;;
23614;SDS011;11985;49.404;7.734;2023-04-25T18:21:30;6.50;;;3.33;;
23614;SDS011;11985;49.404;7.734;2023-04-25T18:26:32;11.80;;;4.60;;
23614;SDS011;11985;49.404;7.734;2023-04-25T18:31:35;10.25;;;3.10;;
23614;SDS011;11985;49.404;7.734;2023-04-25T18:36:37;21.63;;;9.27;;
23614;SDS011;11985;49.404;7.734;2023-04-25T18:41:38;31.73;;;12.45;;
23614;SDS011;11985;49.404;7.734;2023-04-25T18:46:41;16.45;;;3.75;;
23614;SDS011;11985;49.404;7.734;2023-04-25T18:51:45;5.97;;;2.30;;
23614;SDS011;11985;49.404;7.734;2023-04-25T18:56:48;14.05;;;3.55;;
23614;SDS011;11985;49.404;7.734;2023-04-25T19:01:51;8.95;;;2.80;;
23614;SDS011;11985;49.404;7.734;2023-04-25T19:06:52;10.23;;;2.72;;
23614;SDS011;11985;49.404;7.734;2023-04-25T19:11:54;33.38;;;8.10;;
23614;SDS011;11985;49.404;7.734;2023-04-25T19:16:58;15.80;;;4.13;;
23614;SDS011;11985;49.404;7.734;2023-04-25T19:22:00;10.57;;;3.75;;
23614;SDS011;11985;49.404;7.734;2023-04-25T19:27:01;11.95;;;4.13;;
23614;SDS011;11985;49.404;7.734;2023-04-25T19:32:05;11.32;;;4.50;;
23614;SDS011;11985;49.404;7.734;2023-04-25T19:37:07;8.50;;;3.42;;
23614;SDS011;11985;49.404;7.734;2023-04-25T19:42:09;7.95;;;3.05;;
23614;SDS011;11985;49.404;7.734;2023-04-25T19:47:12;9.07;;;3.88;;
23614;SDS011;11985;49.404;7.734;2023-04-25T19:52:14;7.88;;;3.55;;
23614;SDS011;11985;49.404;7.734;2023-04-25T19:57:16;10.60;;;3.60;;
23614;SDS011;11985;49.404;7.734;2023-04-25T20:02:19;17.08;;;3.42;;
23614;SDS011;11985;49.404;7.734;2023-04-25T20:07:21;9.93;;;2.53;;
23614;SDS011;11985;49.404;7.734;2023-04-25T20:12:23;11.38;;;3.03;;
23614;SDS011;11985;49.404;7.734;2023-04-25T20:17:26;10.27;;;2.75;;
23614;SDS011;11985;49.404;7.734;2023-04-25T20:22:28;9.32;;;3.15;;
23614;SDS011;11985;49.404;7.734;2023-04-25T20:27:35;12.27;;;3.17;;
23614;SDS011;11985;49.404;7.734;2023-04-25T20:32:39;13.73;;;3.15;;
23614;SDS011;11985;49.404;7.734;2023-04-25T20:37:41;8.90;;;2.83;;
23614;SDS011;11985;49.404;7.734;2023-04-25T20:42:43;8.68;;;2.50;;
23614;SDS011;11985;49.404;7.734;2023-04-25T20:47:46;8.65;;;3.03;;
23614;SDS011;11985;49.404;7.734;2023-04-25T20:52:48;7.93;;;3.67;;
23614;SDS011;11985;49.404;7.734;2023-04-25T20:57:50;9.30;;;3.30;;
23614;SDS011;11985;49.404;7.734;2023-04-25T21:02:53;7.18;;;2.90;;
23614;SDS011;11985;49.404;7.734;2023-04-25T21:07:55;10.70;;;2.50;;
23614;SDS011;11985;49.404;7.734;2023-04-25T21:12:57;7.60;;;2.53;;
23614;SDS011;11985;49.404;7.734;2023-04-25T21:18:01;12.65;;;3.42;;
23614;SDS011;11985;49.404;7.734;2023-04-25T21:23:02;8.10;;;2.53;;
23614;SDS011;11985;49.404;7.734;2023-04-25T21:28:04;6.18;;;2.88;;
23614;SDS011;11985;49.404;7.734;2023-04-25T21:33:08;6.95;;;2.60;;
23614;SDS011;11985;49.404;7.734;2023-04-25T21:38:10;18.40;;;3.58;;
23614;SDS011;11985;49.404;7.734;2023-04-25T21:43:13;10.70;;;2.83;;
23614;SDS011;11985;49.404;7.734;2023-04-25T21:48:16;10.55;;;3.40;;
23614;SDS011;11985;49.404;7.734;2023-04-25T21:53:18;7.22;;;2.47;;
23614;SDS011;11985;49.404;7.734;2023-04-25T21:58:19;7.90;;;3.05;;
23614;SDS011;11985;49.404;7.734;2023-04-25T22:03:22;7.07;;;2.95;;
23614;SDS011;11985;49.404;7.734;2023-04-25T22:08:24;6.95;;;2.92;;
23614;SDS011;11985;49.404;7.734;2023-04-25T22:13:25;11.60;;;2.92;;
23614;SDS011;11985;49.404;7.734;2023-04-25T22:18:29;8.23;;;2.63;;
23614;SDS011;11985;49.404;7.734;2023-04-25T22:23:31;11.98;;;3.97;;
23614;SDS011;11985;49.404;7.734;2023-04-25T22:28:33;4.85;;;2.42;;
23614;SDS011;11985;49.404;7.734;2023-04-25T22:33:36;11.35;;;3.10;;
23614;SDS011;11985;49.404;7.734;2023-04-25T22:38:38;10.40;;;2.78;;
23614;SDS011;11985;49.404;7.734;2023-04-25T22:43:40;8.68;;;3.40;;
23614;SDS011;11985;49.404;7.734;2023-04-25T22:48:43;6.13;;;3.15;;
23614;SDS011;11985;49.404;7.734;2023-04-25T22:53:45;7.50;;;3.10;;
23614;SDS011;11985;49.404;7.734;2023-04-25T22:58:47;13.70;;;3.78;;
23614;SDS011;11985;49.404;7.734;2023-04-25T23:03:50;5.80;;;3.00;;
23614;SDS011;11985;49.404;7.734;2023-04-25T23:08:52;5.30;;;2.83;;
23614;SDS011;11985;49.404;7.734;2023-04-25T23:13:54;4.82;;;2.80;;
23614;SDS011;11985;49.404;7.734;2023-04-25T23:18:59;9.32;;;3.10;;
23614;SDS011;11985;49.404;7.734;2023-04-25T23:24:01;6.85;;;3.03;;
23614;SDS011;11985;49.404;7.734;2023-04-25T23:29:02;7.78;;;2.80;;
23614;SDS011;11985;49.404;7.734;2023-04-25T23:34:06;10.95;;;3.08;;
23614;SDS011;11985;49.404;7.734;2023-04-25T23:39:07;12.45;;;3.13;;
23614;SDS011;11985;49.404;7.734;2023-04-25T23:44:09;8.15;;;2.97;;
23614;SDS011;11985;49.404;7.734;2023-04-25T23:49:12;9.48;;;3.42;;
23614;SDS011;11985;49.404;7.734;2023-04-25T23:54:14;12.05;;;3.00;;
23614;SDS011;11985;49.404;7.734;2023-04-25T23:59:16;9.18;;;3.30;;
